Time,TemperatureF,DewpointF,PressureIn,WindDirection,WindDirectionDegrees,WindSpeedMPH,WindSpeedGustMPH,Humidity,HourlyPrecipIn,Conditions,Clouds,dailyrainin,SoftwareType,DateUTC
2013-05-19 12:59:00,53.6,28.6,30.10,North,0,3.5,3.7,38,0.00,FEW,,0.00,WeatherDisplay:10.37,2013-05-19 17:59:00,
2013-05-19 13:04:00,79.5,67.6,29.69,SE,135,2.9,3.5,67,0.00,FEW,,0.00,WeatherDisplay:10.37,2013-05-19 18:04:00,
2013-05-19 13:09:00,79.2,67.7,29.69,South,180,4.2,4.6,68,0.00,FEW,,0.00,WeatherDisplay:10.37,2013-05-19 18:09:00,
2013-05-19 13:14:00,77.7,66.7,29.69,South,180,5.3,5.8,69,0.00,BKN,,0.00,WeatherDisplay:10.37,2013-05-19 18:14:00,
2013-05-19 13:19:00,77.7,66.7,29.69,South,180,5.3,5.8,69,0.00,BKN,,0.00,WeatherDisplay:10.37,2013-05-19 18:19:00,
2013-05-19 13:24:00,77.7,66.7,29.69,South,180,5.3,5.8,69,0.00,BKN,,0.00,WeatherDisplay:10.37,2013-05-19 18:24:00,
2013-05-19 13:29:00,77.7,66.7,29.68,South,180,5.3,5.8,69,0.00,BKN,,0.00,WeatherDisplay:10.37,2013-05-19 18:29:00,
2013-05-19 13:34:00,77.7,66.7,29.68,SSW,202,5.3,5.8,69,0.00,BKN,,0.00,WeatherDisplay:10.37,2013-05-19 18:34:00,
2013-05-19 13:40:00,78.1,66.2,29.68,SW,225,6.8,6.9,67,0.00,BKN,,0.00,WeatherDisplay:10.37,2013-05-19 18:40:00,
2013-05-19 13:45:00,78.4,66.1,29.68,South,180,6.0,8.1,66,0.00,BKN,,0.00,WeatherDisplay:10.37,2013-05-19 18:45:00,
2013-05-19 13:50:00,78.3,66.0,29.68,South,180,3.2,3.5,66,0.00,BKN,,0.00,WeatherDisplay:10.37,2013-05-19 18:50:00,
2013-05-19 13:55:00,79.5,66.7,29.68,South,180,2.7,2.7,65,0.00,BKN,,0.00,WeatherDisplay:10.37,2013-05-19 18:55:00,
2013-05-19 14:00:00,79.5,66.7,29.68,South,180,2.7,2.7,65,0.00,BKN,,0.00,WeatherDisplay:10.37,2013-05-19 19:00:00,
2013-05-19 14:05:00,79.5,66.7,29.68,South,180,2.7,2.7,65,0.00,BKN,,0.00,WeatherDisplay:10.37,2013-05-19 19:05:00,
2013-05-19 14:10:00,79.2,67.3,29.68,West,270,5.6,6.3,67,0.00,BKN,,0.00,WeatherDisplay:10.37,2013-05-19 19:10:00,
2013-05-19 14:15:00,79.2,67.3,29.68,West,270,6.3,6.3,67,0.00,BKN,,0.00,WeatherDisplay:10.37,2013-05-19 19:15:00,
2013-05-19 14:20:00,79.2,67.3,29.68,West,270,6.3,6.3,67,0.00,BKN,,0.00,WeatherDisplay:10.37,2013-05-19 19:20:00,
2013-05-19 14:25:00,79.2,67.3,29.67,West,270,6.3,6.3,67,0.00,BKN,,0.00,WeatherDisplay:10.37,2013-05-19 19:25:00,
2013-05-19 14:31:00,79.2,67.3,29.67,West,270,6.3,6.3,67,0.00,BKN,,0.00,WeatherDisplay:10.37,2013-05-19 19:31:00,
2013-05-19 14:36:00,79.2,67.3,29.67,West,270,6.3,6.3,67,0.00,BKN,,0.00,WeatherDisplay:10.37,2013-05-19 19:36:00,
2013-05-19 14:41:00,81.7,68.3,29.67,SW,225,4.1,5.8,64,0.00,BKN,,0.00,WeatherDisplay:10.37,2013-05-19 19:41:00,
2013-05-19 14:46:00,82.0,69.1,29.66,SW,225,4.2,4.6,65,0.00,BKN,,0.00,WeatherDisplay:10.37,2013-05-19 19:46:00,
2013-05-19 14:51:00,82.0,69.1,29.66,WNW,292,4.7,4.7,65,0.00,BKN,,0.00,WeatherDisplay:10.37,2013-05-19 19:51:00,
2013-05-19 14:56:00,81.3,68.4,29.66,West,270,3.2,3.5,65,0.00,BKN,,0.00,WeatherDisplay:10.37,2013-05-19 19:56:00,
2013-05-19 15:01:00,82.2,69.3,29.66,West,270,3.7,3.7,65,0.00,SCT,,0.00,WeatherDisplay:10.37,2013-05-19 20:01:00,
2013-05-19 15:06:00,82.2,69.3,29.66,West,270,3.7,3.7,65,0.00,SCT,,0.00,WeatherDisplay:10.37,2013-05-19 20:06:00,
2013-05-19 15:11:00,82.2,69.3,29.65,West,270,3.7,3.7,65,0.00,SCT,,0.00,WeatherDisplay:10.37,2013-05-19 20:11:00,
2013-05-19 15:16:00,82.2,69.3,29.65,West,270,3.7,3.7,65,0.00,SCT,,0.00,WeatherDisplay:10.37,2013-05-19 20:16:00,
2013-05-19 15:22:00,82.2,69.3,29.65,West,270,3.7,3.7,65,0.00,SCT,,0.00,WeatherDisplay:10.37,2013-05-19 20:22:00,
2013-05-19 15:27:00,82.2,69.3,29.65,West,270,3.7,3.7,65,0.00,SCT,,0.00,WeatherDisplay:10.37,2013-05-19 20:27:00,
2013-05-19 15:32:00,81.0,68.1,29.65,West,270,4.2,4.7,65,0.00,SCT,,0.00,WeatherDisplay:10.37,2013-05-19 20:32:00,
2013-05-19 15:37:00,80.6,68.2,29.65,West,270,2.7,4.6,66,0.00,SCT,,0.00,WeatherDisplay:10.37,2013-05-19 20:37:00,
2013-05-19 15:42:00,80.8,67.9,29.65,SSE,158,3.0,4.6,65,0.00,SCT,,0.00,WeatherDisplay:10.37,2013-05-19 20:42:00,
2013-05-19 15:47:00,80.6,68.2,29.65,WSW,248,2.2,2.3,66,0.00,SCT,,0.00,WeatherDisplay:10.37,2013-05-19 20:47:00,
2013-05-19 15:52:00,78.6,67.6,29.65,WSW,248,3.2,6.3,69,0.00,BKN,,0.00,WeatherDisplay:10.37,2013-05-19 20:52:00,
2013-05-19 15:57:00,73.2,67.7,29.65,SW,225,4.6,8.1,83,0.02,RA,,0.03,WeatherDisplay:10.37,2013-05-19 20:57:00,
2013-05-19 16:02:00,70.9,66.8,29.67,SW,225,2.4,3.5,87,0.09,RA,,0.12,WeatherDisplay:10.37,2013-05-19 21:02:00,
2013-05-19 16:07:00,71.4,67.3,29.67,SSE,158,0.0,0.0,87,0.14,RA,,0.14,WeatherDisplay:10.37,2013-05-19 21:07:00,
2013-05-19 16:13:00,71.6,67.9,29.66,SE,135,0.1,2.3,88,0.14,RA,,0.14,WeatherDisplay:10.37,2013-05-19 21:13:00,
2013-05-19 16:18:00,71.4,68.3,29.66,ESE,112,0.2,1.1,90,0.14,OVC,,0.14,WeatherDisplay:10.37,2013-05-19 21:18:00,
2013-05-19 16:23:00,71.6,67.2,29.66,South,180,2.6,2.7,86,0.14,OVC,,0.14,WeatherDisplay:10.37,2013-05-19 21:23:00,
2013-05-19 16:28:00,71.1,66.7,29.66,SE,135,2.8,3.5,86,0.14,OVC,,0.14,WeatherDisplay:10.37,2013-05-19 21:28:00,
2013-05-19 16:33:00,70.5,66.1,29.66,ESE,112,2.5,2.7,86,0.14,OVC,,0.14,WeatherDisplay:10.37,2013-05-19 21:33:00,
2013-05-19 16:38:00,69.8,66.1,29.67,NE,45,0.7,1.1,88,0.15,RA,,0.15,WeatherDisplay:10.37,2013-05-19 21:38:00,
2013-05-19 16:43:00,69.4,66.0,29.67,SE,135,0.0,0.0,89,0.15,RA,,0.15,WeatherDisplay:10.37,2013-05-19 21:43:00,
2013-05-19 16:48:00,69.1,66.4,29.66,NNW,338,1.6,1.7,91,0.16,RA,,0.16,WeatherDisplay:10.37,2013-05-19 21:48:00,
2013-05-19 16:53:00,68.5,66.4,29.66,ENE,68,2.2,3.5,93,0.18,RA,,0.18,WeatherDisplay:10.37,2013-05-19 21:53:00,
2013-05-19 16:58:00,68.4,66.3,29.63,ESE,112,0.3,1.1,93,0.16,RA,,0.19,WeatherDisplay:10.37,2013-05-19 21:58:00,
2013-05-19 17:04:00,67.6,65.8,29.63,ENE,68,1.1,1.1,94,0.06,RA,,0.19,WeatherDisplay:10.37,2013-05-19 22:04:00,
2013-05-19 17:09:00,67.3,65.8,29.63,ESE,112,1.3,1.7,95,0.06,RA,,0.20,WeatherDisplay:10.37,2013-05-19 22:09:00,
2013-05-19 17:14:00,67.1,65.6,29.62,ENE,68,0.7,1.1,95,0.06,RA,,0.20,WeatherDisplay:10.37,2013-05-19 22:14:00,
2013-05-19 17:19:00,66.7,65.5,29.62,ENE,68,2.0,2.3,96,0.06,BKN,,0.20,WeatherDisplay:10.37,2013-05-19 22:19:00,
2013-05-19 17:24:00,66.6,65.7,29.62,SE,135,1.3,4.2,97,0.07,RA,,0.22,WeatherDisplay:10.37,2013-05-19 22:24:00,
2013-05-19 17:29:00,66.0,65.7,29.62,SE,135,4.2,5.8,99,0.09,RA,,0.26,WeatherDisplay:10.37,2013-05-19 22:29:00,
2013-05-19 17:34:00,65.3,65.0,29.66,SSE,158,3.6,5.8,99,0.25,RA,,0.40,WeatherDisplay:10.37,2013-05-19 22:34:00,
2013-05-19 17:39:00,65.1,64.8,29.66,SE,135,2.3,3.5,99,0.29,RA,,0.44,WeatherDisplay:10.37,2013-05-19 22:39:00,
2013-05-19 17:44:00,64.6,64.3,29.66,ESE,112,4.2,5.8,99,0.30,RA,,0.46,WeatherDisplay:10.37,2013-05-19 22:44:00,
2013-05-19 17:49:00,64.2,63.6,29.63,SE,135,3.2,3.7,98,0.32,RA,,0.49,WeatherDisplay:10.37,2013-05-19 22:49:00,
2013-05-19 17:55:00,64.0,63.7,29.63,SE,135,2.8,3.5,99,0.35,RA,,0.53,WeatherDisplay:10.37,2013-05-19 22:55:00,
2013-05-19 18:00:00,64.0,63.7,29.63,SE,135,4.4,4.7,99,0.39,RA,,0.58,WeatherDisplay:10.37,2013-05-19 23:00:00,
2013-05-19 18:05:00,64.0,63.7,29.63,SW,225,2.6,3.2,99,0.46,RA,,0.65,WeatherDisplay:10.37,2013-05-19 23:05:00,
2013-05-19 18:10:00,63.9,63.6,29.62,SW,225,1.1,2.3,99,0.48,RA,,0.68,WeatherDisplay:10.37,2013-05-19 23:10:00,
2013-05-19 18:15:00,63.9,63.6,29.62,SSE,158,2.3,5.8,99,0.52,RA,,0.73,WeatherDisplay:10.37,2013-05-19 23:15:00,
2013-05-19 18:20:00,63.7,63.4,29.62,ESE,112,4.2,5.8,99,0.55,RA,,0.75,WeatherDisplay:10.37,2013-05-19 23:20:00,
2013-05-19 18:25:00,63.5,63.2,29.63,ESE,112,4.6,5.8,99,0.57,RA,,0.79,WeatherDisplay:10.37,2013-05-19 23:25:00,
2013-05-19 18:30:00,63.5,63.2,29.63,South,180,2.4,3.5,99,0.52,RA,,0.82,WeatherDisplay:10.37,2013-05-19 23:30:00,
2013-05-19 18:35:00,63.5,63.2,29.61,SE,135,2.7,3.5,99,0.44,RA,,0.84,WeatherDisplay:10.37,2013-05-19 23:35:00,
2013-05-19 18:40:00,63.3,63.0,29.61,SSE,158,2.1,2.3,99,0.40,RA,,0.84,WeatherDisplay:10.37,2013-05-19 23:40:00,
2013-05-19 18:46:00,63.3,63.0,29.63,ESE,112,2.0,2.3,99,0.38,OVC,,0.84,WeatherDisplay:10.37,2013-05-19 23:46:00,
2013-05-19 18:51:00,63.7,63.4,29.63,SE,135,0.5,1.1,99,0.35,OVC,,0.84,WeatherDisplay:10.37,2013-05-19 23:51:00,
2013-05-19 18:56:00,63.7,63.4,29.63,SSE,158,0.0,0.0,99,0.30,OVC,,0.84,WeatherDisplay:10.37,2013-05-19 23:56:00,
2013-05-19 19:01:00,63.9,63.6,29.63,SSE,158,0.2,1.1,99,0.23,OVC,,0.84,WeatherDisplay:10.37,2013-05-20 00:01:00,
2013-05-19 19:06:00,64.0,63.7,29.63,South,180,2.2,2.3,99,0.18,BKN,,0.84,WeatherDisplay:10.37,2013-05-20 00:06:00,
2013-05-19 19:11:00,64.0,63.7,29.63,ESE,112,1.9,2.3,99,0.15,BKN,,0.84,WeatherDisplay:10.37,2013-05-20 00:11:00,
2013-05-19 19:16:00,64.0,63.7,29.63,SSE,158,2.7,2.7,99,0.11,BKN,,0.84,WeatherDisplay:10.37,2013-05-20 00:16:00,
2013-05-19 19:21:00,64.0,63.7,29.63,SE,135,2.7,4.6,99,0.08,BKN,,0.84,WeatherDisplay:10.37,2013-05-20 00:21:00,
2013-05-19 19:26:00,64.0,63.7,29.63,SE,135,2.7,2.7,99,0.05,BKN,,0.84,WeatherDisplay:10.37,2013-05-20 00:26:00,
2013-05-19 19:32:00,64.0,63.7,29.63,SSE,158,2.5,2.5,99,0.01,BKN,,0.84,WeatherDisplay:10.37,2013-05-20 00:32:00,
2013-05-19 19:37:00,64.2,63.9,29.63,North,360,0.7,2.2,99,0.00,BKN,,0.84,WeatherDisplay:10.37,2013-05-20 00:37:00,
2013-05-19 19:42:00,64.2,63.9,29.63,SE,135,0.4,1.1,99,0.00,BKN,,0.84,WeatherDisplay:10.37,2013-05-20 00:42:00,
2013-05-19 19:47:00,64.2,63.9,29.63,ESE,112,1.8,2.3,99,0.00,BKN,,0.84,WeatherDisplay:10.37,2013-05-20 00:47:00,
2013-05-19 19:52:00,64.2,63.9,29.63,ESE,112,0.0,0.0,99,0.00,BKN,,0.84,WeatherDisplay:10.37,2013-05-20 00:52:00,
2013-05-19 19:57:00,64.2,63.9,29.63,SE,135,0.3,1.1,99,0.00,BKN,,0.84,WeatherDisplay:10.37,2013-05-20 00:57:00,
2013-05-19 20:02:00,64.2,63.9,29.63,SSE,158,0.0,0.0,99,0.00,BKN,,0.84,WeatherDisplay:10.37,2013-05-20 01:02:00,
2013-05-19 20:07:00,64.2,63.9,29.63,SSE,158,0.0,0.0,99,0.00,BKN,,0.84,WeatherDisplay:10.37,2013-05-20 01:07:00,
2013-05-19 20:12:00,64.2,63.9,29.62,ESE,112,1.1,2.2,99,0.00,CLR,,0.84,WeatherDisplay:10.37,2013-05-20 01:12:00,
2013-05-19 20:17:00,64.2,63.9,29.62,ENE,68,0.0,0.0,99,0.00,CLR,,0.84,WeatherDisplay:10.37,2013-05-20 01:17:00,
2013-05-19 20:23:00,64.2,63.9,29.62,ESE,112,0.0,0.0,99,0.00,CLR,,0.84,WeatherDisplay:10.37,2013-05-20 01:23:00,
2013-05-19 20:28:00,64.0,63.7,29.62,NNE,22,0.0,0.0,99,0.00,CLR,,0.84,WeatherDisplay:10.37,2013-05-20 01:28:00,
2013-05-19 20:33:00,64.0,63.7,29.62,North,360,0.0,0.0,99,0.00,CLR,,0.84,WeatherDisplay:10.37,2013-05-20 01:33:00,
2013-05-19 20:38:00,63.7,63.4,29.62,ENE,68,0.0,0.0,99,0.00,CLR,,0.84,WeatherDisplay:10.37,2013-05-20 01:38:00,
2013-05-19 20:43:00,63.5,63.2,29.62,ESE,112,0.0,0.0,99,0.00,CLR,,0.84,WeatherDisplay:10.37,2013-05-20 01:43:00,
2013-05-19 20:48:00,63.5,63.2,29.61,ESE,112,0.0,0.0,99,0.00,CLR,,0.84,WeatherDisplay:10.37,2013-05-20 01:48:00,
2013-05-19 20:53:00,63.3,63.0,29.61,East,90,2.5,3.5,99,0.00,CLR,,0.84,WeatherDisplay:10.37,2013-05-20 01:53:00,
2013-05-19 20:58:00,63.1,62.8,29.61,ESE,112,2.2,2.3,99,0.00,CLR,,0.84,WeatherDisplay:10.37,2013-05-20 01:58:00,
2013-05-19 21:03:00,63.0,62.7,29.61,ESE,112,0.5,2.7,99,0.00,CLR,,0.84,WeatherDisplay:10.37,2013-05-20 02:03:00,
2013-05-19 21:08:00,63.0,62.7,29.61,East,90,0.0,0.0,99,0.00,CLR,,0.84,WeatherDisplay:10.37,2013-05-20 02:08:00,
2013-05-19 21:14:00,63.0,62.7,29.61,ESE,112,0.0,0.0,99,0.00,CLR,,0.84,WeatherDisplay:10.37,2013-05-20 02:14:00,
2013-05-19 21:19:00,62.8,62.5,29.61,ESE,112,2.4,3.5,99,0.00,CLR,,0.84,WeatherDisplay:10.37,2013-05-20 02:19:00,
2013-05-19 21:24:00,62.8,62.5,29.62,ESE,112,1.1,2.3,99,0.00,CLR,,0.84,WeatherDisplay:10.37,2013-05-20 02:24:00,
2013-05-19 21:29:00,62.6,62.3,29.62,East,90,1.3,1.7,99,0.00,CLR,,0.84,WeatherDisplay:10.37,2013-05-20 02:29:00,
2013-05-19 21:34:00,62.6,62.3,29.62,SE,135,0.0,0.0,99,0.00,CLR,,0.84,WeatherDisplay:10.37,2013-05-20 02:34:00,
2013-05-19 21:39:00,62.6,62.3,29.62,SE,135,0.0,0.0,99,0.00,CLR,,0.84,WeatherDisplay:10.37,2013-05-20 02:39:00,
2013-05-19 21:44:00,62.4,62.1,29.62,ESE,112,0.0,0.0,99,0.00,CLR,,0.84,WeatherDisplay:10.37,2013-05-20 02:44:00,
2013-05-19 21:49:00,62.2,61.9,29.62,ENE,68,0.0,0.0,99,0.00,CLR,,0.84,WeatherDisplay:10.37,2013-05-20 02:49:00,
2013-05-19 21:54:00,62.2,61.9,29.62,ESE,112,0.0,0.0,99,0.00,CLR,,0.84,WeatherDisplay:10.37,2013-05-20 02:54:00,
2013-05-19 21:59:00,62.2,61.9,29.62,ESE,112,0.0,0.0,99,0.00,CLR,,0.84,WeatherDisplay:10.37,2013-05-20 02:59:00,
2013-05-19 22:05:00,62.2,61.9,29.62,NNE,22,0.0,0.0,99,0.00,SCT,,0.84,WeatherDisplay:10.37,2013-05-20 03:05:00,
2013-05-19 22:10:00,62.1,61.8,29.62,ESE,112,0.0,0.0,99,0.00,SCT,,0.84,WeatherDisplay:10.37,2013-05-20 03:10:00,
2013-05-19 22:15:00,62.1,61.8,29.62,NNW,338,0.0,0.0,99,0.00,SCT,,0.84,WeatherDisplay:10.37,2013-05-20 03:15:00,
2013-05-19 22:20:00,62.1,61.8,29.62,NNW,338,0.0,0.0,99,0.00,SCT,,0.84,WeatherDisplay:10.37,2013-05-20 03:20:00,
2013-05-19 22:25:00,62.1,61.8,29.61,NNW,338,0.0,0.0,99,0.00,SCT,,0.84,WeatherDisplay:10.37,2013-05-20 03:25:00,
2013-05-19 22:30:00,62.1,61.8,29.61,NNW,338,0.0,0.0,99,0.00,SCT,,0.84,WeatherDisplay:10.37,2013-05-20 03:30:00,
2013-05-19 22:35:00,62.1,61.8,29.59,North,360,0.0,0.0,99,0.00,SCT,,0.84,WeatherDisplay:10.37,2013-05-20 03:35:00,
2013-05-19 22:40:00,62.1,61.8,29.59,ESE,112,0.0,0.0,99,0.00,SCT,,0.84,WeatherDisplay:10.37,2013-05-20 03:40:00,
2013-05-19 22:45:00,61.9,61.6,29.59,East,90,0.0,0.0,99,0.00,SCT,,0.84,WeatherDisplay:10.37,2013-05-20 03:45:00,
2013-05-19 22:50:00,61.9,61.6,29.59,East,90,0.0,0.0,99,0.00,SCT,,0.84,WeatherDisplay:10.37,2013-05-20 03:50:00,
2013-05-19 22:56:00,61.9,61.6,29.59,NE,45,0.0,0.0,99,0.00,SCT,,0.84,WeatherDisplay:10.37,2013-05-20 03:56:00,
2013-05-19 23:01:00,61.9,61.6,29.59,ENE,68,0.0,0.0,99,0.00,SCT,,0.84,WeatherDisplay:10.37,2013-05-20 04:01:00,
2013-05-19 23:02:00,61.9,61.6,29.59,ENE,68,0.0,0.0,99,0.00,CLR,,0.84,WeatherDisplay:10.37,2013-05-20 04:02:00,
2013-05-19 23:03:00,61.9,61.6,29.59,East,90,0.0,0.0,99,0.00,CLR,,0.84,WeatherDisplay:10.37,2013-05-20 04:03:00,
2013-05-19 23:08:00,61.9,61.6,29.59,East,90,0.0,0.0,99,0.00,CLR,,0.84,WeatherDisplay:10.37,2013-05-20 04:08:00,
2013-05-19 23:13:00,61.9,61.6,29.58,SE,135,0.1,1.1,99,0.00,CLR,,0.84,WeatherDisplay:10.37,2013-05-20 04:13:00,
2013-05-19 23:18:00,61.9,61.6,29.58,NNE,22,0.0,0.0,99,0.00,CLR,,0.84,WeatherDisplay:10.37,2013-05-20 04:18:00,
2013-05-19 23:23:00,61.9,61.6,29.58,NE,45,0.0,0.0,99,0.00,CLR,,0.84,WeatherDisplay:10.37,2013-05-20 04:23:00,
2013-05-19 23:29:00,61.9,61.6,29.58,East,90,0.0,0.0,99,0.00,CLR,,0.84,WeatherDisplay:10.37,2013-05-20 04:29:00,
2013-05-19 23:34:00,61.9,61.6,29.58,East,90,0.0,0.0,99,0.00,CLR,,0.84,WeatherDisplay:10.37,2013-05-20 04:34:00,
2013-05-19 23:39:00,61.9,61.6,29.58,East,90,2.1,5.8,99,0.00,CLR,,0.84,WeatherDisplay:10.37,2013-05-20 04:39:00,
2013-05-19 23:44:00,61.9,61.6,29.58,ESE,112,2.8,4.7,99,0.00,CLR,,0.84,WeatherDisplay:10.37,2013-05-20 04:44:00,
2013-05-19 23:49:00,61.9,61.6,29.60,East,90,2.8,5.8,99,0.00,CLR,,0.84,WeatherDisplay:10.37,2013-05-20 04:49:00,
2013-05-19 23:54:00,61.9,61.6,29.60,ESE,112,2.8,3.5,99,0.00,CLR,,0.84,WeatherDisplay:10.37,2013-05-20 04:54:00,
2013-05-19 23:59:00,61.9,61.6,29.59,East,90,2.1,3.5,99,0.00,CLR,,0.84,WeatherDisplay:10.37,2013-05-20 04:59:00,